Time;durP1;ratioP1;P1;durP2;ratioP2;P2;SDS_P1;SDS_P2;PMS_P1;PMS_P2;Temp;Humidity;BMP_temperature;BMP_pressure;BME280_temperature;BME280_humidity;BME280_pressure;Samples;Min_cycle;Max_cycle;Signal;HPM_P1;HPM_P2
2022/03/10 00:01:22;;;;;;;54.50;25.50;;;2.80;48.20;;;;;;5094538;28;20480;-73
2022/03/10 00:03:47;;;;;;;50.05;24.05;;;2.80;48.30;;;;;;5094462;28;20107;-73
2022/03/10 00:06:13;;;;;;;53.17;25.15;;;2.70;48.50;;;;;;5094316;28;20035;-72
2022/03/10 00:08:39;;;;;;;46.70;23.33;;;2.60;48.60;;;;;;5094355;28;20100;-72
2022/03/10 00:11:05;;;;;;;51.10;25.23;;;2.50;48.90;;;;;;5094366;28;20027;-72
2022/03/10 00:13:31;;;;;;;57.15;25.52;;;2.40;49.00;;;;;;5094232;28;20364;-73
2022/03/10 00:15:59;;;;;;;45.80;22.65;;;2.30;49.50;;;;;;5094108;28;20488;-72
2022/03/10 00:18:24;;;;;;;50.88;24.52;;;2.30;49.90;;;;;;5094425;28;20114;-73
2022/03/10 00:20:50;;;;;;;49.75;24.73;;;2.20;50.10;;;;;;5094302;28;20172;-73
2022/03/10 00:23:16;;;;;;;46.65;23.58;;;2.10;50.50;;;;;;5094166;28;20073;-72
2022/03/10 00:25:41;;;;;;;48.75;23.90;;;2.10;50.60;;;;;;5096285;28;20108;-73
2022/03/10 00:28:07;;;;;;;53.97;24.67;;;2.10;50.50;;;;;;5100818;28;20107;-73
2022/03/10 00:30:32;;;;;;;43.88;22.80;;;2.10;50.60;;;;;;5098288;28;20055;-73
2022/03/10 00:32:58;;;;;;;54.47;24.35;;;2.10;50.70;;;;;;5093907;28;20079;-72
2022/03/10 00:35:25;;;;;;;50.75;23.95;;;1.90;51.00;;;;;;5093552;28;20435;-73
2022/03/10 00:37:52;;;;;;;42.80;21.38;;;1.90;51.30;;;;;;5092898;28;20032;-71
2022/03/10 00:40:17;;;;;;;46.67;23.05;;;1.90;51.10;;;;;;5093910;28;20099;-72
2022/03/10 00:42:43;;;;;;;48.33;21.70;;;1.90;50.90;;;;;;5093642;28;20516;-72
2022/03/10 00:45:11;;;;;;;44.97;22.02;;;2.00;50.70;;;;;;5093784;28;20047;-72
2022/03/10 00:47:36;;;;;;;44.97;21.50;;;2.00;50.60;;;;;;5093644;28;20052;-71
2022/03/10 00:50:04;;;;;;;42.47;20.92;;;2.00;50.50;;;;;;5092285;28;20507;-73
2022/03/10 00:52:30;;;;;;;46.40;22.55;;;2.00;50.40;;;;;;5093579;28;20380;-72
2022/03/10 00:54:55;;;;;;;43.88;21.50;;;2.00;50.60;;;;;;5093580;28;20032;-72
2022/03/10 00:57:21;;;;;;;48.80;23.13;;;2.10;50.50;;;;;;5093458;28;20035;-72
2022/03/10 00:59:47;;;;;;;50.35;22.10;;;2.10;50.30;;;;;;5093411;28;20099;-72
2022/03/10 01:02:12;;;;;;;48.88;23.33;;;2.20;50.00;;;;;;5093033;28;20103;-72
2022/03/10 01:04:38;;;;;;;45.85;23.27;;;2.10;49.40;;;;;;5093228;28;20507;-72
2022/03/10 01:07:03;;;;;;;43.05;21.27;;;2.00;50.30;;;;;;5093229;28;20111;-73
2022/03/10 01:09:29;;;;;;;49.47;22.38;;;2.00;49.70;;;;;;5093382;28;20118;-72
2022/03/10 01:11:55;;;;;;;43.15;21.48;;;2.10;49.60;;;;;;5093249;28;20024;-73
2022/03/10 01:14:20;;;;;;;41.20;20.55;;;2.10;49.40;;;;;;5093249;28;20503;-73
2022/03/10 01:16:46;;;;;;;39.50;20.10;;;2.10;49.60;;;;;;5091664;28;20492;-73
2022/03/10 01:19:11;;;;;;;42.50;19.73;;;2.10;49.90;;;;;;5092963;28;20024;-72
2022/03/10 01:21:37;;;;;;;41.90;19.85;;;2.10;50.10;;;;;;5093284;28;20032;-73
2022/03/10 01:24:03;;;;;;;45.70;21.10;;;2.10;50.20;;;;;;5091875;28;20020;-72
2022/03/10 01:26:28;;;;;;;39.72;19.83;;;2.10;50.10;;;;;;5091757;28;20032;-72
2022/03/10 01:28:54;;;;;;;40.50;19.23;;;2.10;50.30;;;;;;5093133;28;20421;-72
2022/03/10 01:31:19;;;;;;;40.95;19.88;;;2.00;50.40;;;;;;5092942;28;20430;-72
2022/03/10 01:33:45;;;;;;;40.13;20.15;;;2.10;50.50;;;;;;5091668;28;20376;-72
2022/03/10 01:36:10;;;;;;;36.47;19.00;;;2.10;50.40;;;;;;5092792;28;20055;-72
2022/03/10 01:38:39;;;;;;;37.72;17.95;;;2.10;50.70;;;;;;5093356;28;20024;-72
2022/03/10 01:41:05;;;;;;;35.05;16.85;;;2.10;50.50;;;;;;5092936;28;20427;-72
2022/03/10 01:43:31;;;;;;;38.50;18.50;;;2.20;50.30;;;;;;5092881;28;20099;-73
2022/03/10 01:45:57;;;;;;;35.33;18.40;;;2.10;50.50;;;;;;5093040;28;20105;-73
2022/03/10 01:48:23;;;;;;;33.97;16.58;;;2.10;50.50;;;;;;5093504;28;20552;-72
2022/03/10 01:50:49;;;;;;;34.42;17.65;;;2.10;50.30;;;;;;5097163;28;20060;-72
2022/03/10 01:53:15;;;;;;;35.88;17.17;;;2.10;50.20;;;;;;5097260;28;20388;-72
2022/03/10 01:55:41;;;;;;;39.33;18.30;;;2.10;50.20;;;;;;5100360;28;20055;-74
2022/03/10 01:58:07;;;;;;;36.95;17.70;;;2.00;50.50;;;;;;5103880;28;20059;-74
2022/03/10 02:00:33;;;;;;;34.55;17.98;;;1.90;50.80;;;;;;5101604;28;20036;-70
2022/03/10 02:02:58;;;;;;;37.80;17.63;;;1.90;51.00;;;;;;5097545;28;20031;-73
2022/03/10 02:05:24;;;;;;;38.13;18.13;;;1.80;51.10;;;;;;5096691;28;20027;-72
2022/03/10 02:10:35;;;;;;;31.30;16.30;;;1.70;51.50;;;;;;5096889;28;20035;-73
2022/03/10 02:13:00;;;;;;;34.45;15.95;;;1.80;51.40;;;;;;5096429;28;20174;-71
2022/03/10 02:18:12;;;;;;;33.67;15.63;;;1.80;50.80;;;;;;5096736;28;20101;-72
2022/03/10 02:20:39;;;;;;;31.42;15.55;;;1.90;50.70;;;;;;5096389;28;20024;-73
2022/03/10 02:23:07;;;;;;;40.17;16.55;;;1.90;50.50;;;;;;5095101;28;20388;-72
2022/03/10 02:25:34;;;;;;;31.67;16.08;;;1.80;50.60;;;;;;5096207;28;20028;-72
2022/03/10 02:27:59;;;;;;;29.98;15.15;;;1.70;51.00;;;;;;5096373;28;20024;-72
2022/03/10 02:30:28;;;;;;;28.70;15.00;;;1.60;51.30;;;;;;5096080;28;20050;-72
2022/03/10 02:32:54;;;;;;;31.08;15.30;;;1.50;51.50;;;;;;5096274;28;20027;-72
2022/03/10 02:35:19;;;;;;;32.10;15.10;;;1.50;51.70;;;;;;5096126;28;20024;-72
2022/03/10 02:37:45;;;;;;;27.65;14.13;;;1.50;52.00;;;;;;5095958;28;20032;-73
2022/03/10 02:40:12;;;;;;;27.95;14.10;;;1.50;52.20;;;;;;5095964;28;20093;-71
2022/03/10 02:42:38;;;;;;;28.67;14.55;;;1.50;51.90;;;;;;5095928;28;20480;-72
2022/03/10 02:45:05;;;;;;;27.33;14.32;;;1.50;51.70;;;;;;5095867;28;20024;-71
2022/03/10 02:47:31;;;;;;;26.98;14.07;;;1.60;51.60;;;;;;5095909;28;20051;-72
2022/03/10 02:49:57;;;;;;;27.45;14.15;;;1.50;51.50;;;;;;5095962;28;20028;-71
2022/03/10 02:52:22;;;;;;;24.30;12.90;;;1.40;51.50;;;;;;5095867;28;20024;-72
2022/03/10 02:54:48;;;;;;;28.08;13.45;;;1.40;51.70;;;;;;5095809;28;20472;-71
2022/03/10 02:57:14;;;;;;;33.63;13.75;;;1.50;51.80;;;;;;5095831;28;20032;-72
2022/03/10 02:59:40;;;;;;;26.23;12.85;;;1.40;52.00;;;;;;5095362;28;20388;-72
2022/03/10 03:02:06;;;;;;;31.05;13.45;;;1.40;52.10;;;;;;5095208;28;20103;-72
2022/03/10 03:04:32;;;;;;;21.67;12.55;;;1.40;52.10;;;;;;5095575;28;20104;-72
2022/03/10 03:06:57;;;;;;;27.80;12.18;;;1.40;52.00;;;;;;5095603;28;20144;-72
2022/03/10 03:09:23;;;;;;;27.00;13.52;;;1.40;52.00;;;;;;5095573;28;20027;-73
2022/03/10 03:11:49;;;;;;;29.48;12.80;;;1.40;51.90;;;;;;5095528;28;20035;-72
2022/03/10 03:14:14;;;;;;;26.67;12.38;;;1.40;51.80;;;;;;5095496;28;20020;-72
2022/03/10 03:16:40;;;;;;;21.88;11.65;;;1.40;51.80;;;;;;5095246;28;20127;-71
2022/03/10 03:19:05;;;;;;;28.70;14.05;;;1.50;52.00;;;;;;5095316;28;20026;-71
2022/03/10 03:21:31;;;;;;;25.08;12.43;;;1.50;51.80;;;;;;5095303;28;20043;-72
2022/03/10 03:23:57;;;;;;;26.42;13.55;;;1.60;51.50;;;;;;5093887;28;20020;-71
2022/03/10 03:26:22;;;;;;;31.60;13.98;;;1.50;51.20;;;;;;5094965;28;20111;-72
2022/03/10 03:28:48;;;;;;;28.38;14.20;;;1.50;51.30;;;;;;5095038;28;20027;-72
2022/03/10 03:31:14;;;;;;;31.48;13.63;;;1.40;51.40;;;;;;5095163;28;20024;-72
2022/03/10 03:33:39;;;;;;;34.15;13.57;;;1.30;51.60;;;;;;5094980;28;20073;-73
2022/03/10 03:36:05;;;;;;;26.15;13.55;;;1.20;51.60;;;;;;5094931;28;20077;-72
2022/03/10 03:38:31;;;;;;;28.85;13.02;;;1.10;51.90;;;;;;5094932;28;20034;-72
2022/03/10 03:41:00;;;;;;;30.50;14.52;;;1.10;52.50;;;;;;5094810;28;20026;-72
2022/03/10 03:43:26;;;;;;;31.58;14.60;;;1.10;52.50;;;;;;5094719;28;20032;-74
2022/03/10 03:45:51;;;;;;;25.10;12.75;;;0.90;52.70;;;;;;5094841;28;20106;-74
2022/03/10 03:48:17;;;;;;;27.80;12.40;;;0.90;52.70;;;;;;5094567;28;20387;-71
2022/03/10 03:50:42;;;;;;;25.10;12.55;;;1.00;52.70;;;;;;5094666;28;20034;-73
2022/03/10 03:53:08;;;;;;;28.20;12.93;;;1.00;52.60;;;;;;5094598;28;20107;-72
2022/03/10 03:55:33;;;;;;;23.30;12.55;;;1.00;53.30;;;;;;5094542;28;20051;-74
2022/03/10 03:57:59;;;;;;;23.95;12.00;;;1.10;52.60;;;;;;5094294;28;20032;-72
2022/03/10 04:00:24;;;;;;;23.13;11.93;;;1.10;52.50;;;;;;5094440;28;20020;-72
2022/03/10 04:02:50;;;;;;;22.85;11.55;;;1.10;52.40;;;;;;5094494;28;20024;-72
2022/03/10 04:05:16;;;;;;;26.60;12.38;;;1.10;52.40;;;;;;5094678;28;20020;-72
2022/03/10 04:07:42;;;;;;;25.33;11.65;;;1.10;52.30;;;;;;5094433;28;20020;-73
2022/03/10 04:10:08;;;;;;;23.08;11.98;;;1.10;52.60;;;;;;5094248;28;20383;-73
2022/03/10 04:12:34;;;;;;;21.55;12.18;;;1.00;52.70;;;;;;5092963;28;20488;-73
2022/03/10 04:15:00;;;;;;;24.08;11.30;;;1.10;52.80;;;;;;5093993;28;20127;-73
2022/03/10 04:17:26;;;;;;;25.60;11.98;;;1.00;52.60;;;;;;5093958;28;20130;-73
2022/03/10 04:19:52;;;;;;;23.60;11.85;;;1.00;52.70;;;;;;5094019;28;20067;-73
2022/03/10 04:22:17;;;;;;;23.20;12.43;;;1.00;52.70;;;;;;5094111;28;20024;-73
2022/03/10 04:24:43;;;;;;;31.98;13.30;;;1.00;52.60;;;;;;5094096;28;20116;-73
2022/03/10 04:27:08;;;;;;;25.65;12.98;;;1.00;52.50;;;;;;5093717;28;20081;-73
2022/03/10 04:29:34;;;;;;;24.15;12.45;;;0.90;52.70;;;;;;5094024;28;20039;-73
2022/03/10 04:32:00;;;;;;;24.25;12.45;;;0.90;53.10;;;;;;5093971;28;20024;-72
2022/03/10 04:34:25;;;;;;;24.23;11.52;;;0.80;53.30;;;;;;5093649;28;20051;-71
2022/03/10 04:36:51;;;;;;;24.77;11.68;;;0.80;54.10;;;;;;5093663;28;20388;-72
2022/03/10 04:39:17;;;;;;;23.08;12.43;;;0.80;53.40;;;;;;5093817;28;20051;-72
2022/03/10 04:41:43;;;;;;;28.52;12.65;;;0.80;53.40;;;;;;5093634;28;20491;-71
2022/03/10 04:44:10;;;;;;;26.88;11.95;;;0.70;53.50;;;;;;5093459;28;20495;-72
2022/03/10 04:46:36;;;;;;;22.60;11.75;;;0.70;53.30;;;;;;5093489;28;20037;-72
2022/03/10 04:49:01;;;;;;;28.23;12.88;;;0.70;53.30;;;;;;5093478;28;20070;-73
2022/03/10 04:51:27;;;;;;;28.70;12.57;;;0.70;53.20;;;;;;5093482;28;20055;-73
2022/03/10 04:53:53;;;;;;;31.23;12.43;;;0.80;52.80;;;;;;5093459;28;20024;-72
2022/03/10 04:56:18;;;;;;;27.45;12.52;;;0.80;52.60;;;;;;5093320;28;20035;-72
2022/03/10 04:58:44;;;;;;;27.15;12.60;;;0.90;52.20;;;;;;5093398;28;20468;-73
2022/03/10 05:01:10;;;;;;;23.17;11.65;;;1.00;51.60;;;;;;5093253;28;20468;-73
2022/03/10 05:03:36;;;;;;;25.67;12.35;;;1.00;51.50;;;;;;5093629;28;20129;-73
2022/03/10 05:06:01;;;;;;;26.73;12.23;;;1.00;51.10;;;;;;5093226;28;20495;-73
2022/03/10 05:08:27;;;;;;;27.15;13.07;;;1.10;51.10;;;;;;5093293;28;20028;-73
2022/03/10 05:10:53;;;;;;;25.77;13.68;;;1.10;50.80;;;;;;5093363;28;20020;-73
2022/03/10 05:13:18;;;;;;;30.02;13.80;;;1.10;51.60;;;;;;5091983;28;20112;-73
2022/03/10 05:15:44;;;;;;;26.45;12.95;;;1.10;51.00;;;;;;5093084;28;20063;-72
2022/03/10 05:18:09;;;;;;;31.50;14.25;;;1.10;51.10;;;;;;5093102;28;20481;-72
2022/03/10 05:20:35;;;;;;;32.40;14.35;;;1.10;51.20;;;;;;5093092;28;20024;-73
2022/03/10 05:23:04;;;;;;;32.05;13.48;;;1.10;51.00;;;;;;5092559;28;20039;-73
2022/03/10 05:25:34;;;;;;;28.25;12.43;;;1.10;50.70;;;;;;5092938;28;20415;-73
2022/03/10 05:28:00;;;;;;;25.65;12.82;;;1.20;50.50;;;;;;5091666;28;20032;-73
2022/03/10 05:30:26;;;;;;;30.40;13.70;;;1.20;50.60;;;;;;5092933;28;20023;-73
2022/03/10 05:32:52;;;;;;;28.33;13.75;;;1.10;50.90;;;;;;5092897;28;20028;-73
2022/03/10 05:35:18;;;;;;;32.92;14.90;;;0.90;51.40;;;;;;5092810;28;20020;-73
2022/03/10 05:37:45;;;;;;;28.10;13.70;;;0.80;52.00;;;;;;5092922;28;20040;-73
2022/03/10 05:40:16;;;;;;;31.83;13.75;;;0.70;52.30;;;;;;5092838;28;20017;-73
2022/03/10 05:42:43;;;;;;;31.67;14.55;;;0.70;52.40;;;;;;5092889;28;20081;-72
2022/03/10 05:45:10;;;;;;;28.98;14.15;;;0.60;52.50;;;;;;5092869;28;20030;-73
2022/03/10 05:47:36;;;;;;;30.27;14.05;;;0.60;52.80;;;;;;5092656;28;20020;-72
2022/03/10 05:50:06;;;;;;;27.85;13.57;;;0.50;53.30;;;;;;5093067;28;20020;-71
2022/03/10 05:52:31;;;;;;;29.88;13.57;;;0.50;53.30;;;;;;5092766;28;20030;-72
2022/03/10 05:54:57;;;;;;;32.50;13.70;;;0.60;53.20;;;;;;5092636;28;20103;-72
2022/03/10 05:57:23;;;;;;;33.95;13.98;;;0.60;53.10;;;;;;5092689;28;20036;-72
2022/03/10 05:59:49;;;;;;;25.17;12.88;;;0.70;52.90;;;;;;5092938;28;20028;-72
2022/03/10 06:02:17;;;;;;;29.85;13.57;;;0.80;52.70;;;;;;5092840;28;20035;-72
2022/03/10 06:04:44;;;;;;;34.15;13.73;;;0.80;52.50;;;;;;5092616;28;20020;-73
2022/03/10 06:07:10;;;;;;;31.52;13.30;;;0.80;52.40;;;;;;5091455;28;20602;-73
2022/03/10 06:09:35;;;;;;;35.50;14.80;;;0.80;52.40;;;;;;5092388;28;20032;-73
2022/03/10 06:12:01;;;;;;;28.58;13.00;;;0.90;52.30;;;;;;5092349;28;20028;-72
2022/03/10 06:14:26;;;;;;;36.03;15.35;;;0.90;52.30;;;;;;5092383;28;20027;-73
2022/03/10 06:16:52;;;;;;;29.25;14.27;;;0.90;52.20;;;;;;5092253;28;20044;-72
2022/03/10 06:19:18;;;;;;;29.05;14.20;;;1.00;51.90;;;;;;5092499;28;20107;-74
2022/03/10 06:21:43;;;;;;;35.17;14.57;;;1.00;52.00;;;;;;5092345;28;20028;-72
2022/03/10 06:24:10;;;;;;;32.47;15.23;;;1.00;52.00;;;;;;5092128;28;20391;-72
2022/03/10 06:26:36;;;;;;;31.90;15.43;;;0.90;52.40;;;;;;5091937;28;20433;-73
2022/03/10 06:29:04;;;;;;;35.40;15.18;;;0.90;52.70;;;;;;5092702;28;20029;-72
2022/03/10 06:31:30;;;;;;;32.75;14.63;;;0.90;52.60;;;;;;5092333;28;20107;-72
2022/03/10 06:33:55;;;;;;;33.00;14.25;;;1.10;52.20;;;;;;5091831;28;20078;-72
2022/03/10 06:36:21;;;;;;;46.03;21.27;;;1.30;51.80;;;;;;5094186;28;20055;-72
2022/03/10 06:38:46;;;;;;;41.83;19.08;;;1.30;51.50;;;;;;5096096;28;20111;-72
2022/03/10 06:41:12;;;;;;;48.45;22.92;;;1.10;51.80;;;;;;5095652;28;20099;-72
2022/03/10 06:43:37;;;;;;;47.35;19.92;;;1.00;52.20;;;;;;5095669;28;20035;-72
2022/03/10 06:46:04;;;;;;;42.60;18.13;;;0.90;52.70;;;;;;5095888;28;20473;-72
2022/03/10 06:48:31;;;;;;;49.28;19.98;;;1.00;52.80;;;;;;5095772;28;20364;-72
2022/03/10 06:50:56;;;;;;;43.17;19.27;;;1.00;52.70;;;;;;5094464;28;20023;-72
2022/03/10 06:53:22;;;;;;;41.70;18.92;;;1.00;52.40;;;;;;5095801;28;20028;-72
2022/03/10 06:55:47;;;;;;;36.33;16.55;;;1.10;52.30;;;;;;5095897;28;20028;-72
2022/03/10 06:58:13;;;;;;;36.05;17.88;;;1.30;52.50;;;;;;5095664;28;20032;-72
2022/03/10 07:00:38;;;;;;;43.17;18.17;;;1.50;52.30;;;;;;5094432;28;20055;-72
2022/03/10 07:03:04;;;;;;;33.15;14.82;;;1.70;51.60;;;;;;5095354;28;20016;-72
2022/03/10 07:05:30;;;;;;;32.55;15.80;;;1.90;51.30;;;;;;5095284;28;20048;-71
2022/03/10 07:07:56;;;;;;;41.30;18.05;;;2.10;51.00;;;;;;5095523;28;20383;-72
2022/03/10 07:10:22;;;;;;;39.78;19.73;;;2.20;50.80;;;;;;5095498;28;20480;-72
2022/03/10 07:12:48;;;;;;;30.60;15.27;;;2.30;50.80;;;;;;5095334;28;20031;-72
2022/03/10 07:15:14;;;;;;;36.00;15.65;;;2.40;50.20;;;;;;5095037;28;20127;-71
2022/03/10 07:17:40;;;;;;;31.20;15.15;;;2.50;50.00;;;;;;5095280;28;20040;-71
2022/03/10 07:20:07;;;;;;;31.27;14.73;;;2.70;49.80;;;;;;5095398;28;20361;-72
2022/03/10 07:22:33;;;;;;;40.08;15.55;;;2.80;49.10;;;;;;5095399;28;20023;-71
2022/03/10 07:24:58;;;;;;;33.85;15.88;;;2.90;48.60;;;;;;5095100;28;20404;-71
2022/03/10 07:27:24;;;;;;;40.90;19.90;;;3.10;48.40;;;;;;5095318;28;20055;-72
2022/03/10 07:29:49;;;;;;;41.97;20.40;;;3.20;48.20;;;;;;5095175;28;20032;-72
2022/03/10 07:32:15;;;;;;;37.42;19.25;;;3.40;47.70;;;;;;5095066;28;20123;-72
2022/03/10 07:34:41;;;;;;;41.97;18.92;;;3.50;47.40;;;;;;5095066;28;20039;-71
2022/03/10 07:37:06;;;;;;;35.47;17.80;;;3.60;47.10;;;;;;5094542;28;20031;-73
2022/03/10 07:39:32;;;;;;;36.95;17.63;;;3.70;46.90;;;;;;5095325;28;20024;-72
2022/03/10 07:42:00;;;;;;;39.60;17.75;;;3.80;46.50;;;;;;5094987;28;20028;-71
2022/03/10 07:44:25;;;;;;;34.75;17.83;;;3.90;46.30;;;;;;5095217;28;20099;-72
2022/03/10 07:46:51;;;;;;;41.33;19.50;;;4.00;46.10;;;;;;5093429;28;20127;-73
2022/03/10 07:49:17;;;;;;;39.35;18.98;;;4.10;45.80;;;;;;5093651;28;20376;-73
2022/03/10 07:51:44;;;;;;;41.60;21.85;;;4.10;45.80;;;;;;5095566;28;20103;-73
2022/03/10 07:54:10;;;;;;;42.38;21.95;;;4.10;46.00;;;;;;5097096;28;20017;-72
2022/03/10 07:56:36;;;;;;;43.50;23.38;;;4.20;45.90;;;;;;5098596;28;20092;-73
2022/03/10 07:59:01;;;;;;;46.65;22.48;;;4.20;45.70;;;;;;5094621;28;20448;-74
2022/03/10 08:01:27;;;;;;;44.70;21.23;;;4.40;45.80;;;;;;5093374;28;20020;-74
2022/03/10 08:03:52;;;;;;;41.65;20.90;;;4.50;45.80;;;;;;5093624;28;20020;-71
2022/03/10 08:06:18;;;;;;;37.47;19.52;;;4.70;45.70;;;;;;5094465;28;20024;-74
2022/03/10 08:08:44;;;;;;;41.25;19.98;;;4.90;45.90;;;;;;5092979;28;20468;-74
2022/03/10 08:11:11;;;;;;;36.97;15.15;;;5.10;45.80;;;;;;5094210;28;20032;-76
2022/03/10 08:13:36;;;;;;;35.85;17.52;;;6.00;70.10;;;;;;5094245;28;20048;-73
2022/03/10 08:16:02;;;;;;;34.92;17.70;;;6.80;63.20;;;;;;5093779;28;20083;-73
2022/03/10 08:18:29;;;;;;;44.90;19.85;;;7.30;55.10;;;;;;5094412;28;20028;-74
2022/03/10 08:20:59;;;;;;;38.10;19.75;;;7.80;48.20;;;;;;5094309;28;20024;-73
2022/03/10 08:23:25;;;;;;;34.45;18.95;;;8.10;45.70;;;;;;5094466;28;20024;-71
2022/03/10 08:25:50;;;;;;;35.83;18.63;;;8.30;43.90;;;;;;5094006;28;20476;-72
2022/03/10 08:28:16;;;;;;;31.58;17.55;;;8.60;42.90;;;;;;5093799;28;20035;-71
2022/03/10 08:30:42;;;;;;;33.33;17.92;;;9.10;43.10;;;;;;5094287;28;20031;-74
2022/03/10 08:33:08;;;;;;;43.95;24.80;;;9.20;39.90;;;;;;5093928;28;20024;-74
2022/03/10 08:35:33;;;;;;;39.35;19.67;;;9.20;38.70;;;;;;5094069;28;20368;-72
2022/03/10 08:37:59;;;;;;;34.75;17.58;;;9.30;38.60;;;;;;5093756;28;20044;-74
2022/03/10 08:40:25;;;;;;;31.33;18.20;;;9.40;39.20;;;;;;5093777;28;20056;-72
2022/03/10 08:42:51;;;;;;;29.98;17.08;;;9.60;39.30;;;;;;5093720;28;20085;-75
2022/03/10 08:45:16;;;;;;;30.13;17.10;;;9.70;39.60;;;;;;5094103;28;20396;-75
2022/03/10 08:47:43;;;;;;;34.58;17.25;;;10.00;37.50;;;;;;5094589;28;20020;-73
2022/03/10 08:50:09;;;;;;;31.67;17.02;;;10.20;38.20;;;;;;5101611;28;20027;-72
2022/03/10 08:52:35;;;;;;;29.02;15.63;;;10.40;36.40;;;;;;5104513;28;20043;-72
2022/03/10 08:55:02;;;;;;;28.60;16.70;;;10.50;35.60;;;;;;5103674;28;20078;-73
2022/03/10 08:57:27;;;;;;;27.38;15.70;;;10.60;35.80;;;;;;5111711;28;20035;-72
2022/03/10 08:59:53;;;;;;;28.25;16.00;;;10.80;35.40;;;;;;5102658;28;20055;-71
2022/03/10 09:02:19;;;;;;;27.55;15.45;;;10.60;32.60;;;;;;5096407;28;20031;-71
2022/03/10 09:04:44;;;;;;;26.25;15.50;;;10.00;32.60;;;;;;5092185;28;20012;-71
2022/03/10 09:07:11;;;;;;;28.33;15.43;;;10.00;33.30;;;;;;5093289;28;20056;-72
2022/03/10 09:09:36;;;;;;;26.23;15.52;;;9.80;34.60;;;;;;5092261;28;20423;-72
2022/03/10 09:12:02;;;;;;;28.35;15.75;;;9.80;34.00;;;;;;5093530;28;20028;-72
2022/03/10 09:14:28;;;;;;;28.10;15.60;;;9.80;33.70;;;;;;5093386;28;20070;-72
2022/03/10 09:16:54;;;;;;;28.17;16.30;;;9.90;33.70;;;;;;5093196;28;20036;-71
2022/03/10 09:19:21;;;;;;;26.58;15.20;;;9.90;32.90;;;;;;5093036;28;20146;-71
2022/03/10 09:21:47;;;;;;;26.95;15.18;;;10.00;33.40;;;;;;5093136;28;20062;-71
2022/03/10 09:24:12;;;;;;;24.67;14.00;;;10.10;32.40;;;;;;5092877;28;20464;-72
2022/03/10 09:26:38;;;;;;;25.83;13.85;;;10.20;31.70;;;;;;5092940;28;20055;-72
2022/03/10 09:29:04;;;;;;;26.02;14.82;;;10.40;31.30;;;;;;5091511;28;20024;-72
2022/03/10 09:31:30;;;;;;;19.58;10.63;;;10.50;31.50;;;;;;5092869;28;20032;-72
2022/03/10 09:33:56;;;;;;;13.50;7.45;;;10.50;29.90;;;;;;5092854;28;20023;-72
2022/03/10 09:36:21;;;;;;;8.00;4.97;;;10.60;27.20;;;;;;5092534;28;20024;-73
2022/03/10 09:38:47;;;;;;;8.13;5.05;;;10.80;25.40;;;;;;5091530;28;20028;-73
2022/03/10 09:41:13;;;;;;;6.95;3.80;;;10.90;24.50;;;;;;5091529;28;20040;-72
2022/03/10 09:43:39;;;;;;;7.10;4.05;;;10.90;23.90;;;;;;5092526;28;20020;-73
2022/03/10 09:46:09;;;;;;;8.43;4.00;;;11.00;23.70;;;;;;5092637;28;20396;-73
2022/03/10 09:48:36;;;;;;;8.05;4.20;;;11.20;23.30;;;;;;5092679;28;20016;-71
2022/03/10 09:51:01;;;;;;;8.18;4.03;;;11.40;23.00;;;;;;5092438;28;20024;-73
2022/03/10 09:53:30;;;;;;;6.85;3.92;;;11.50;22.60;;;;;;5092744;28;20035;-71
2022/03/10 09:55:56;;;;;;;8.77;4.25;;;11.70;22.40;;;;;;5092708;28;20051;-72
2022/03/10 09:58:22;;;;;;;6.82;4.10;;;11.70;21.80;;;;;;5092524;28;20032;-72
2022/03/10 10:00:48;;;;;;;8.90;4.10;;;11.80;21.60;;;;;;5091335;28;20027;-71
2022/03/10 10:03:13;;;;;;;5.05;3.25;;;11.90;21.50;;;;;;5092514;28;20024;-71
2022/03/10 10:05:40;;;;;;;8.63;3.17;;;12.00;21.20;;;;;;5092420;28;20111;-72
2022/03/10 10:08:17;;;;;;;6.03;3.13;;;12.20;21.60;;;;;;5092349;28;20074;-72
2022/03/10 10:10:43;;;;;;;6.28;3.67;;;12.50;22.10;;;;;;5095096;28;20028;-72
2022/03/10 10:13:12;;;;;;;5.72;3.58;;;12.80;21.30;;;;;;5096188;28;20020;-72
2022/03/10 10:15:40;;;;;;;4.43;3.25;;;12.80;20.50;;;;;;5096040;28;20097;-72
2022/03/10 10:18:14;;;;;;;4.35;2.83;;;13.00;20.50;;;;;;5096474;28;20119;-72
2022/03/10 10:20:48;;;;;;;7.55;3.70;;;13.20;20.50;;;;;;5096174;28;20129;-72
2022/03/10 10:23:38;;;;;;;6.45;3.20;;;13.40;19.90;;;;;;5096081;28;20028;-72
2022/03/10 10:26:06;;;;;;;4.25;2.90;;;13.50;19.90;;;;;;5095985;28;20060;-72
2022/03/10 10:28:36;;;;;;;5.57;3.90;;;13.70;19.90;;;;;;5096263;28;20071;-71
2022/03/10 10:31:05;;;;;;;5.90;4.30;;;13.90;19.50;;;;;;5096067;28;20020;-71
2022/03/10 10:33:32;;;;;;;7.20;4.13;;;13.80;18.90;;;;;;5096205;28;20062;-72
2022/03/10 10:36:25;;;;;;;4.88;3.35;;;13.60;18.70;;;;;;5094793;28;20024;-71
2022/03/10 10:38:56;;;;;;;9.35;3.47;;;13.60;18.30;;;;;;5095754;28;20031;-71
2022/03/10 10:41:23;;;;;;;6.57;3.08;;;13.70;18.20;;;;;;5095846;28;20056;-72
2022/03/10 10:44:01;;;;;;;9.15;3.17;;;13.80;18.30;;;;;;5096000;28;20028;-72
2022/03/10 10:46:28;;;;;;;4.80;3.25;;;14.10;18.20;;;;;;5095739;28;20484;-72
2022/03/10 10:48:54;;;;;;;7.80;3.85;;;14.30;17.60;;;;;;5095428;28;20144;-72
2022/03/10 10:51:31;;;;;;;6.55;4.28;;;14.40;17.40;;;;;;5095507;28;20020;-72
2022/03/10 10:53:59;;;;;;;6.15;4.18;;;14.40;17.40;;;;;;5095821;28;20031;-72
2022/03/10 10:56:26;;;;;;;5.43;3.92;;;14.40;17.40;;;;;;5095516;28;20060;-73
2022/03/10 10:58:54;;;;;;;4.78;3.00;;;14.50;17.70;;;;;;5093793;28;20479;-72
2022/03/10 11:01:31;;;;;;;4.75;2.80;;;14.40;16.90;;;;;;5095613;28;20077;-72
2022/03/10 11:03:57;;;;;;;6.95;4.05;;;14.20;16.60;;;;;;5095380;28;20024;-72
2022/03/10 11:06:22;;;;;;;4.13;2.92;;;14.00;16.80;;;;;;5095144;28;20031;-72
2022/03/10 11:08:49;;;;;;;6.38;3.20;;;13.80;16.60;;;;;;5095449;28;20486;-72
2022/03/10 11:11:15;;;;;;;6.97;3.30;;;13.80;16.90;;;;;;5095464;28;20032;-72
2022/03/10 11:13:41;;;;;;;5.38;3.00;;;13.90;17.00;;;;;;5095242;28;20040;-72
2022/03/10 11:16:08;;;;;;;5.82;2.97;;;13.90;16.80;;;;;;5094834;28;20044;-71
2022/03/10 11:18:34;;;;;;;5.10;2.90;;;13.90;17.40;;;;;;5095146;28;20162;-73
2022/03/10 11:21:20;;;;;;;4.38;2.90;;;13.90;16.90;;;;;;5099595;28;20035;-73
2022/03/10 11:23:58;;;;;;;6.82;3.30;;;13.90;16.90;;;;;;5095441;28;20032;-72
2022/03/10 11:26:51;;;;;;;5.88;3.20;;;14.20;16.90;;;;;;5095518;28;20114;-72
2022/03/10 11:29:26;;;;;;;4.28;2.67;;;14.50;16.40;;;;;;5093542;28;20516;-72
2022/03/10 11:31:53;;;;;;;7.55;2.85;;;14.60;16.30;;;;;;5094816;28;20027;-72
2022/03/10 11:34:54;;;;;;;7.40;2.85;;;14.50;16.20;;;;;;5095206;28;20090;-72
2022/03/10 11:37:35;;;;;;;3.97;2.67;;;14.60;15.80;;;;;;5094598;28;20488;-72
2022/03/10 11:40:04;;;;;;;5.50;2.58;;;14.70;15.70;;;;;;5094586;28;20095;-73
2022/03/10 11:42:31;;;;;;;6.10;3.38;;;14.80;15.50;;;;;;5094831;28;20105;-72
2022/03/10 11:45:16;;;;;;;5.00;2.65;;;15.20;15.70;;;;;;5094448;28;20020;-75
2022/03/10 11:47:43;;;;;;;6.53;2.35;;;15.10;15.20;;;;;;5094865;28;20433;-73
2022/03/10 11:50:21;;;;;;;6.18;3.00;;;15.10;15.10;;;;;;5094522;28;20036;-72
2022/03/10 11:52:53;;;;;;;3.78;2.40;;;15.10;14.80;;;;;;5092815;28;20028;-73
2022/03/10 11:55:20;;;;;;;9.65;2.67;;;14.90;14.50;;;;;;5094183;28;20028;-72
2022/03/10 11:58:06;;;;;;;2.95;2.00;;;14.80;14.60;;;;;;5094382;28;20472;-74
2022/03/10 12:00:51;;;;;;;3.40;2.30;;;15.10;14.80;;;;;;5094241;28;20035;-74
2022/03/10 12:03:35;;;;;;;3.67;2.20;;;15.20;14.60;;;;;;5094334;28;20028;-73
2022/03/10 12:06:12;;;;;;;4.63;2.38;;;15.60;14.60;;;;;;5094272;28;20618;-72
2022/03/10 12:08:40;;;;;;;3.00;2.20;;;16.00;14.10;;;;;;5093964;28;20023;-73
2022/03/10 12:11:19;;;;;;;3.17;1.88;;;16.50;13.70;;;;;;5093019;28;20031;-73
2022/03/10 12:13:45;;;;;;;4.03;2.10;;;16.90;13.40;;;;;;5092625;28;20031;-73
2022/03/10 12:16:26;;;;;;;4.50;2.10;;;17.20;12.90;;;;;;5092488;28;20139;-73
2022/03/10 12:18:52;;;;;;;4.40;2.67;;;16.80;12.40;;;;;;5092838;28;20080;-74
2022/03/10 12:21:19;;;;;;;4.20;2.58;;;16.60;12.50;;;;;;5092573;28;20020;-74
2022/03/10 12:23:58;;;;;;;3.50;2.13;;;16.50;12.60;;;;;;5093519;28;20064;-73
2022/03/10 12:26:39;;;;;;;12.60;2.28;;;16.50;13.10;;;;;;5093708;28;20031;-73
2022/03/10 12:29:10;;;;;;;3.67;2.22;;;16.80;12.60;;;;;;5092548;28;20502;-73
2022/03/10 12:31:37;;;;;;;3.53;1.80;;;16.80;12.10;;;;;;5092529;28;20081;-74
2022/03/10 12:34:13;;;;;;;3.00;2.17;;;16.70;11.90;;;;;;5091194;28;20492;-73
2022/03/10 12:36:49;;;;;;;3.67;2.08;;;16.90;11.60;;;;;;5092656;28;20078;-73
2022/03/10 12:39:19;;;;;;;;;;;17.10;11.60;;;;;;5093005;28;20067;-72
2022/03/10 12:41:49;;;;;;;6.28;2.80;;;16.80;12.00;;;;;;5092285;28;19926;-74
2022/03/10 12:44:18;;;;;;;13.18;3.60;;;16.70;12.20;;;;;;5091122;28;20016;-75